Austin, Kentucky
Current Conditions -  °F | °C
As of 2:55 AM on Wednesday 22 Oct 2014 (Local Time) from KGLW Reporting Station
Clear Clear  
Wind Chill: 46°   Ceiling: Unl
Heat Index: 46°   Visibility: 10mi
Dew Point: 40°   Wind: 0mph
Humidity: 81%   Direction: NA
Pressure: 30.17"   Gusts: NA
Location:  36.83°N, 86.02°W
Report Text: KGLW 220755Z AUTO 00000KT 10SM CLR 08/05 A3017 RMK AO2 T00750045
Loading
Personal Weather Stations






























Interactive Weather Map
Tropical Storm Tracking
New forecast layout! Learn more

10-Day Weather Forecast

Advertisements
Track Severe Weather on mobile